Time;durP1;ratioP1;P1;durP2;ratioP2;P2;SDS_P1;SDS_P2;PMS_P1;PMS_P2;Temp;Humidity;BMP_temperature;BMP_pressure;BME280_temperature;BME280_humidity;BME280_pressure;Samples;Min_cycle;Max_cycle;Signal;HPM_P1;HPM_P2
2023/11/24 00:01:15;;;;;;;3.85;1.30;;;;;;;4.92;62.08;92468.47;2044105;70;20500;-79
2023/11/24 00:03:41;;;;;;;2.05;1.10;;;;;;;4.96;60.32;92469.53;2044051;70;20134;-78
2023/11/24 00:06:06;;;;;;;2.60;1.30;;;;;;;4.89;60.48;92473.16;2047652;70;20170;-79
2023/11/24 00:08:32;;;;;;;4.20;1.25;;;;;;;4.99;59.88;92473.19;2047768;70;20205;-78
2023/11/24 00:10:58;;;;;;;3.00;1.05;;;;;;;4.94;61.98;92477.72;2047666;70;20170;-79
2023/11/24 00:13:24;;;;;;;2.58;0.98;;;;;;;4.82;62.06;92468.44;2043865;70;20154;-77
2023/11/24 00:15:52;;;;;;;1.17;0.80;;;;;;;4.80;63.83;92468.25;2047646;70;20209;-78
2023/11/24 00:18:21;;;;;;;1.38;1.00;;;;;;;4.90;63.16;92468.28;2047659;70;20511;-78
2023/11/24 00:20:47;;;;;;;2.88;1.05;;;;;;;4.77;62.89;92450.63;2044183;70;20211;-79
2023/11/24 00:23:13;;;;;;;3.15;1.40;;;;;;;4.77;62.96;92449.91;2047907;70;20188;-79
2023/11/24 00:25:39;;;;;;;2.42;1.30;;;;;;;4.81;61.92;92450.97;2047728;70;20149;-78
2023/11/24 00:28:05;;;;;;;1.40;1.00;;;;;;;4.79;62.95;92464.00;2047575;70;20155;-77
2023/11/24 00:30:32;;;;;;;2.33;1.20;;;;;;;4.85;63.42;92464.47;2044255;70;20143;-79
2023/11/24 00:32:58;;;;;;;1.85;1.20;;;;;;;4.75;64.28;92442.09;2047612;70;20170;-80
2023/11/24 00:35:24;;;;;;;1.60;1.10;;;;;;;4.65;64.19;92446.16;2047573;70;20134;-78
2023/11/24 00:37:49;;;;;;;1.50;1.08;;;;;;;4.64;64.16;92437.06;2043893;70;20186;-78
2023/11/24 00:40:18;;;;;;;2.55;1.13;;;;;;;4.64;65.29;92420.34;2044025;70;20301;-78
2023/11/24 00:42:44;;;;;;;1.55;1.00;;;;;;;4.41;66.04;92411.56;2041577;70;20173;-80
2023/11/24 00:45:12;;;;;;;1.85;1.15;;;;;;;4.52;64.99;92394.28;2047703;70;20135;-79
2023/11/24 00:47:38;;;;;;;2.08;1.23;;;;;;;4.41;64.21;92392.06;2044018;70;20169;-79
2023/11/24 00:50:05;;;;;;;3.47;1.00;;;;;;;4.50;64.59;92383.00;2044174;70;20595;-78
2023/11/24 00:52:31;;;;;;;1.33;1.20;;;;;;;4.63;65.00;92387.44;2047811;70;20229;-79
2023/11/24 00:54:57;;;;;;;2.75;1.10;;;;;;;4.54;64.46;92372.16;2044306;70;20147;-78
2023/11/24 00:57:23;;;;;;;3.13;0.98;;;;;;;4.64;63.86;92386.16;2047683;70;20162;-79
2023/11/24 00:59:50;;;;;;;1.63;1.00;;;;;;;4.25;65.16;92374.78;2047641;70;20519;-78
2023/11/24 01:02:18;;;;;;;1.27;1.02;;;;;;;4.43;65.97;92367.84;2041440;70;20169;-78
2023/11/24 01:04:45;;;;;;;2.30;1.25;;;;;;;4.57;63.84;92363.34;2047312;70;20151;-78
2023/11/24 01:07:11;;;;;;;2.25;1.38;;;;;;;4.42;63.85;92376.78;2047681;70;20174;-79
2023/11/24 01:09:37;;;;;;;2.53;1.40;;;;;;;4.42;63.95;92374.00;2047663;70;20710;-79
2023/11/24 01:12:05;;;;;;;1.85;1.20;;;;;;;4.42;64.84;92391.47;2043973;70;20151;-78
2023/11/24 01:14:31;;;;;;;1.20;1.10;;;;;;;4.52;63.19;92380.34;2047642;70;20150;-79
2023/11/24 01:17:02;;;;;;;2.45;1.20;;;;;;;4.61;62.97;92367.78;2047572;70;20190;-79
2023/11/24 01:19:29;;;;;;;3.67;0.98;;;;;;;4.57;63.28;92357.78;2047287;70;20158;-79
2023/11/24 01:21:55;;;;;;;2.20;1.20;;;;;;;4.56;64.62;92356.31;2043867;70;20189;-79
2023/11/24 01:24:21;;;;;;;2.85;1.08;;;;;;;4.60;63.83;92378.19;2047564;70;20158;-79
2023/11/24 01:26:48;;;;;;;1.80;1.20;;;;;;;4.44;64.44;92349.78;2047938;70;20171;-78
2023/11/24 01:29:15;;;;;;;3.22;1.17;;;;;;;4.50;65.37;92361.44;2047725;70;20151;-79
2023/11/24 01:31:40;;;;;;;1.00;0.90;;;;;;;4.49;64.94;92365.53;2047619;70;20170;-78
2023/11/24 01:34:06;;;;;;;1.50;1.00;;;;;;;4.44;66.08;92355.38;2043976;70;20532;-78
2023/11/24 01:36:31;;;;;;;3.15;1.05;;;;;;;4.44;65.09;92365.78;2047572;70;20162;-80
2023/11/24 01:38:58;;;;;;;1.63;1.08;;;;;;;4.56;65.06;92347.22;2043412;70;20158;-78
2023/11/24 01:41:23;;;;;;;2.42;1.10;;;;;;;4.51;63.16;92346.16;2047704;70;20157;-78
2023/11/24 01:44:05;;;;;;;3.03;1.10;;;;;;;4.55;64.18;92348.53;2047575;70;20154;-79
2023/11/24 01:46:31;;;;;;;1.95;0.90;;;;;;;4.57;65.05;92357.03;2044113;70;20150;-77
2023/11/24 01:48:58;;;;;;;2.05;1.20;;;;;;;4.37;64.52;92342.28;2041046;70;20602;-78
2023/11/24 01:51:25;;;;;;;3.70;1.27;;;;;;;4.46;63.40;92338.09;2043963;70;20169;-78
2023/11/24 01:53:52;;;;;;;1.33;1.00;;;;;;;4.53;62.80;92340.00;2047588;70;20205;-78
2023/11/24 01:56:19;;;;;;;2.53;1.38;;;;;;;4.66;62.10;92333.31;2041450;70;20167;-78
2023/11/24 01:58:46;;;;;;;3.58;1.40;;;;;;;4.62;63.65;92330.22;2047687;70;20151;-79
2023/11/24 02:01:13;;;;;;;2.28;1.23;;;;;;;4.57;64.62;92327.13;2047743;70;20535;-79
2023/11/24 02:03:40;;;;;;;2.65;1.30;;;;;;;4.73;61.67;92322.03;2043865;70;20135;-79
2023/11/24 02:06:08;;;;;;;2.92;1.73;;;;;;;4.64;64.01;92316.44;2043944;70;20146;-80
2023/11/24 02:08:35;;;;;;;2.10;0.98;;;;;;;4.69;62.76;92299.44;2047249;70;20569;-80
2023/11/24 02:11:02;;;;;;;1.45;1.00;;;;;;;4.66;63.21;92295.00;2047187;70;20154;-80
2023/11/24 02:13:27;;;;;;;1.42;1.00;;;;;;;4.46;62.43;92279.56;2043775;70;20198;-79
2023/11/24 02:15:53;;;;;;;3.40;1.08;;;;;;;4.56;63.95;92250.38;2047164;70;20311;-79
2023/11/24 02:18:20;;;;;;;2.67;1.55;;;;;;;4.45;62.65;92256.53;2041299;70;20147;-80
2023/11/24 02:20:46;;;;;;;2.92;1.20;;;;;;;4.64;62.54;92241.91;2047023;70;20167;-81
2023/11/24 02:23:13;;;;;;;2.20;1.25;;;;;;;4.63;62.96;92251.59;2047186;70;20256;-80
2023/11/24 02:25:39;;;;;;;2.00;1.15;;;;;;;4.76;61.66;92242.78;2046997;70;20142;-81
2023/11/24 02:28:06;;;;;;;1.88;1.02;;;;;;;4.60;63.85;92230.44;2044030;70;20162;-80
2023/11/24 02:30:33;;;;;;;3.05;1.17;;;;;;;4.72;61.72;92234.13;2047164;70;20237;-80
2023/11/24 02:32:59;;;;;;;1.52;1.10;;;;;;;4.67;63.55;92212.81;2041166;70;20206;-79
2023/11/24 02:35:28;;;;;;;1.27;1.10;;;;;;;4.76;62.10;92217.69;2044041;70;20227;-80
2023/11/24 02:37:56;;;;;;;2.28;1.20;;;;;;;4.71;62.65;92199.19;2041370;70;20599;-79
2023/11/24 02:40:22;;;;;;;2.05;1.00;;;;;;;4.72;61.91;92202.72;2047084;70;20154;-80
2023/11/24 02:42:49;;;;;;;2.50;1.00;;;;;;;4.85;61.61;92205.06;2041352;70;20143;-79
2023/11/24 02:45:14;;;;;;;1.42;1.10;;;;;;;4.87;60.57;92196.88;2044077;70;20645;-80
2023/11/24 02:47:40;;;;;;;4.07;1.30;;;;;;;4.70;62.61;92191.41;2044148;70;20143;-79
2023/11/24 02:50:08;;;;;;;1.08;0.90;;;;;;;4.70;61.77;92161.47;2047239;70;20237;-80
2023/11/24 02:52:35;;;;;;;2.30;1.10;;;;;;;4.73;61.29;92196.56;2043791;70;20139;-80
2023/11/24 02:55:01;;;;;;;2.30;1.20;;;;;;;4.73;62.32;92157.53;2044074;70;20143;-81
2023/11/24 02:57:29;;;;;;;3.30;1.02;;;;;;;4.74;61.42;92166.63;2047074;70;20147;-80
2023/11/24 02:59:55;;;;;;;3.00;1.02;;;;;;;5.07;59.38;92189.97;2044259;70;20138;-80
2023/11/24 03:02:22;;;;;;;1.98;1.10;;;;;;;4.94;61.29;92167.34;2047099;70;20607;-81
2023/11/24 03:04:49;;;;;;;3.22;1.05;;;;;;;4.85;63.15;92163.97;2046849;70;20143;-80
2023/11/24 03:07:17;;;;;;;1.52;1.05;;;;;;;4.91;61.92;92155.31;2046883;70;20143;-78
2023/11/24 03:09:43;;;;;;;1.73;1.10;;;;;;;4.85;61.79;92155.59;2047089;70;20317;-79
2023/11/24 03:12:11;;;;;;;4.35;1.20;;;;;;;4.79;62.80;92144.00;2047214;70;20150;-78
2023/11/24 03:14:38;;;;;;;1.50;1.00;;;;;;;4.78;61.95;92133.47;2043949;70;20170;-79
2023/11/24 03:17:03;;;;;;;2.20;1.10;;;;;;;5.03;61.62;92136.66;2044182;70;20147;-79
2023/11/24 03:19:29;;;;;;;1.65;1.10;;;;;;;5.02;62.61;92140.78;2044050;70;20150;-81
2023/11/24 03:21:55;;;;;;;3.20;1.20;;;;;;;5.15;61.24;92152.81;2047993;70;20144;-81
2023/11/24 03:24:21;;;;;;;2.53;1.10;;;;;;;5.12;61.84;92151.94;2041909;70;20151;-81
2023/11/24 03:26:46;;;;;;;3.33;1.42;;;;;;;4.47;63.45;92170.25;2047968;70;20162;-79
2023/11/24 03:29:13;;;;;;;4.28;1.38;;;;;;;4.79;64.46;92169.13;2042064;70;20167;-81
2023/11/24 03:31:39;;;;;;;2.58;1.20;;;;;;;4.98;63.31;92167.66;2047905;70;20507;-79
2023/11/24 03:34:06;;;;;;;6.43;1.67;;;;;;;5.10;62.72;92149.00;2041838;70;20178;-82
2023/11/24 03:36:32;;;;;;;4.10;1.58;;;;;;;4.93;63.50;92161.03;2047972;70;20229;-81
2023/11/24 03:38:58;;;;;;;2.63;1.38;;;;;;;4.98;63.83;92150.91;2041930;70;20165;-82
2023/11/24 03:41:23;;;;;;;2.88;1.40;;;;;;;5.08;64.01;92162.78;2047940;70;20139;-82
2023/11/24 03:43:49;;;;;;;4.93;1.30;;;;;;;5.17;64.05;92159.25;2047963;70;20270;-81
2023/11/24 03:46:15;;;;;;;2.78;1.33;;;;;;;5.15;64.30;92153.53;2048038;70;20147;-81
2023/11/24 03:48:41;;;;;;;3.33;1.50;;;;;;;5.10;65.12;92166.47;2047892;70;20243;-80
2023/11/24 03:51:08;;;;;;;7.47;2.00;;;;;;;5.21;65.20;92145.59;2047758;70;20237;-81
2023/11/24 03:53:36;;;;;;;6.07;2.88;;;;;;;5.18;64.88;92138.44;2044718;70;20150;-79
2023/11/24 03:56:06;;;;;;;10.90;5.20;;;;;;;5.00;65.18;92129.47;2047912;70;20665;-79
2023/11/24 03:58:32;;;;;;;12.98;5.78;;;;;;;5.20;64.82;92127.41;2047920;70;20654;-79
2023/11/24 04:00:58;;;;;;;7.85;5.10;;;;;;;5.32;64.32;92127.53;2044546;70;20186;-77
2023/11/24 04:03:23;;;;;;;5.10;3.45;;;;;;;5.40;64.17;92127.34;2047831;70;20153;-79
2023/11/24 04:05:53;;;;;;;5.00;2.25;;;;;;;5.23;65.56;92115.06;2044384;70;20161;-78
2023/11/24 04:08:21;;;;;;;3.35;2.13;;;;;;;4.97;65.56;92118.75;2047910;70;20147;-79
2023/11/24 04:10:47;;;;;;;4.55;2.45;;;;;;;5.09;65.85;92108.47;2047802;70;20270;-79
2023/11/24 04:13:13;;;;;;;3.55;2.30;;;;;;;5.10;65.66;92119.03;2047777;70;20632;-79
2023/11/24 04:15:38;;;;;;;4.80;1.90;;;;;;;4.82;66.58;92101.03;2047849;70;20147;-79
2023/11/24 04:18:05;;;;;;;3.75;2.10;;;;;;;5.17;66.20;92113.88;2044550;70;20633;-79
2023/11/24 04:20:32;;;;;;;6.50;2.03;;;;;;;5.18;66.74;92102.16;2047729;70;20594;-78
2023/11/24 04:23:08;;;;;;;2.38;1.70;;;;;;;5.33;66.25;92101.81;2048019;70;20266;-78
2023/11/24 04:25:34;;;;;;;3.45;1.80;;;;;;;4.96;67.22;92092.94;2047866;70;20138;-80
2023/11/24 04:28:14;;;;;;;2.97;1.75;;;;;;;5.09;66.99;92103.63;2048124;70;20147;-80
2023/11/24 04:30:41;;;;;;;3.55;1.75;;;;;;;5.32;66.40;92103.16;2047954;70;20542;-80
2023/11/24 04:33:09;;;;;;;7.32;2.70;;;;;;;5.03;67.50;92085.72;2044304;70;20526;-80
2023/11/24 04:35:35;;;;;;;5.03;2.10;;;;;;;4.88;69.20;92080.47;2047772;70;20580;-79
2023/11/24 04:38:01;;;;;;;4.57;2.33;;;;;;;5.15;68.25;92080.28;2044445;70;20146;-81
2023/11/24 04:40:26;;;;;;;12.63;6.78;;;;;;;5.04;68.58;92084.38;2044500;70;20134;-81
2023/11/24 04:42:52;;;;;;;12.55;6.75;;;;;;;5.21;67.90;92075.84;2047859;70;20590;-80
2023/11/24 04:45:18;;;;;;;8.77;4.95;;;;;;;5.30;67.94;92085.50;2044529;70;20146;-80
2023/11/24 04:47:44;;;;;;;8.38;3.80;;;;;;;5.30;68.35;92097.41;2047990;70;20221;-81
2023/11/24 04:50:10;;;;;;;8.93;3.70;;;;;;;5.49;67.75;92077.06;2047601;70;20139;-80
2023/11/24 04:52:38;;;;;;;9.73;5.18;;;;;;;5.17;69.23;92067.19;2047686;70;20154;-81
2023/11/24 04:55:04;;;;;;;11.93;5.78;;;;;;;4.97;69.48;92065.78;2047814;70;20139;-81
2023/11/24 04:57:33;;;;;;;10.15;5.88;;;;;;;5.34;68.55;92075.38;2044595;70;20151;-80
2023/11/24 05:00:07;;;;;;;13.77;7.57;;;;;;;5.17;68.65;92083.91;2047832;70;20134;-80
2023/11/24 05:02:44;;;;;;;;;;;;;;;5.33;68.52;92082.28;2047887;70;20147;-80
2023/11/24 05:05:14;;;;;;;24.73;14.20;;;;;;;5.35;68.70;92064.94;2047768;70;20079;-78
2023/11/24 05:07:42;;;;;;;17.02;9.27;;;;;;;5.12;69.65;92050.75;2047887;70;20147;-78
2023/11/24 05:10:08;;;;;;;15.02;8.20;;;;;;;5.45;68.68;92065.66;2047720;70;20134;-78
2023/11/24 05:12:34;;;;;;;11.13;5.28;;;;;;;5.55;68.48;92057.97;2047660;70;20135;-77
2023/11/24 05:15:02;;;;;;;9.23;4.10;;;;;;;5.61;68.27;92044.41;2047606;70;20159;-78
2023/11/24 05:17:27;;;;;;;7.53;3.70;;;;;;;5.63;68.22;92048.66;2047677;70;20186;-79
2023/11/24 05:19:53;;;;;;;9.70;4.95;;;;;;;5.47;68.93;92037.84;2047450;70;20165;-77
2023/11/24 05:22:18;;;;;;;10.00;5.68;;;;;;;5.16;70.71;92042.66;2047522;70;20137;-77
2023/11/24 05:24:44;;;;;;;10.57;4.47;;;;;;;5.37;70.48;92033.66;2047645;70;20155;-79
2023/11/24 05:27:09;;;;;;;6.32;3.45;;;;;;;5.45;69.60;92040.53;2047700;70;20146;-78
2023/11/24 05:29:35;;;;;;;8.48;3.65;;;;;;;5.59;69.24;92032.38;2047843;70;20131;-80
2023/11/24 05:32:01;;;;;;;7.22;4.20;;;;;;;5.47;69.96;92042.72;2047552;70;20143;-79
2023/11/24 05:34:26;;;;;;;8.13;4.35;;;;;;;5.39;70.47;92036.56;2047510;70;20662;-78
2023/11/24 05:36:52;;;;;;;10.43;4.40;;;;;;;5.16;71.52;92031.50;2047603;70;20179;-81
2023/11/24 05:39:18;;;;;;;6.68;3.55;;;;;;;5.49;70.06;92026.09;2047671;70;20664;-78
2023/11/24 05:41:46;;;;;;;10.73;4.97;;;;;;;4.96;71.77;92036.41;2047654;70;20155;-79
2023/11/24 05:44:12;;;;;;;7.30;4.03;;;;;;;5.06;71.92;92028.75;2047554;70;20162;-77
2023/11/24 05:46:38;;;;;;;6.95;4.30;;;;;;;5.35;71.05;92032.16;2044381;70;20222;-78
2023/11/24 05:49:04;;;;;;;8.95;3.90;;;;;;;5.28;70.27;92035.16;2047521;70;20146;-80
2023/11/24 05:51:30;;;;;;;15.77;3.83;;;;;;;5.44;69.54;92036.25;2047537;70;20222;-81
2023/11/24 05:53:55;;;;;;;11.27;4.68;;;;;;;5.38;70.21;92035.09;2047629;70;20143;-79
2023/11/24 05:56:21;;;;;;;10.52;4.93;;;;;;;5.51;69.48;92040.94;2047728;70;20143;-77
2023/11/24 05:58:47;;;;;;;9.25;4.63;;;;;;;5.53;69.15;92032.69;2047787;70;20166;-80
2023/11/24 06:01:12;;;;;;;10.77;5.45;;;;;;;5.65;69.95;92040.44;2047570;70;20574;-79
2023/11/24 06:03:38;;;;;;;8.07;4.93;;;;;;;5.19;71.21;92030.34;2048027;70;20253;-80
2023/11/24 06:06:03;;;;;;;17.20;7.40;;;;;;;5.12;71.67;92039.59;2047801;70;20147;-80
2023/11/24 06:08:29;;;;;;;13.18;7.47;;;;;;;5.48;70.56;92025.34;2047917;70;20246;-80
2023/11/24 06:10:54;;;;;;;19.25;8.85;;;;;;;5.46;70.38;92030.81;2047852;70;20143;-80
2023/11/24 06:13:20;;;;;;;14.73;8.00;;;;;;;5.52;70.27;92036.06;2047905;70;20150;-80
2023/11/24 06:15:45;;;;;;;12.80;8.32;;;;;;;5.70;69.31;92036.59;2047967;70;20614;-80
2023/11/24 06:18:11;;;;;;;9.93;5.85;;;;;;;5.71;69.47;92024.09;2048085;70;20147;-81
2023/11/24 06:20:37;;;;;;;13.88;7.35;;;;;;;5.45;70.20;92039.78;2047817;70;20154;-80
2023/11/24 06:23:03;;;;;;;20.73;10.13;;;;;;;5.48;70.41;92041.38;2047949;70;20241;-78
2023/11/24 06:25:29;;;;;;;13.45;8.00;;;;;;;5.38;71.12;92030.25;2047952;70;20182;-78
2023/11/24 06:27:55;;;;;;;14.35;8.00;;;;;;;5.28;72.15;92021.19;2048020;70;20212;-78
2023/11/24 06:30:20;;;;;;;16.05;7.70;;;;;;;5.35;71.40;92018.22;2047968;70;20160;-78
2023/11/24 06:32:46;;;;;;;15.85;8.07;;;;;;;5.33;71.46;92014.56;2047927;70;20147;-78
2023/11/24 06:35:11;;;;;;;15.90;8.77;;;;;;;5.58;70.42;92012.09;2047808;70;20139;-77
2023/11/24 06:37:38;;;;;;;24.95;15.50;;;;;;;5.37;71.35;91998.09;2047998;70;20174;-78
2023/11/24 06:40:06;;;;;;;14.90;8.98;;;;;;;5.49;71.21;92007.28;2047949;70;20238;-77
2023/11/24 06:42:31;;;;;;;27.00;12.35;;;;;;;5.53;70.75;91995.66;2047870;70;20151;-77
2023/11/24 06:44:57;;;;;;;22.15;13.43;;;;;;;5.57;71.09;92001.53;2047924;70;20174;-78
2023/11/24 06:47:25;;;;;;;22.20;11.73;;;;;;;5.60;70.98;91995.47;2047985;70;20155;-78
2023/11/24 06:49:51;;;;;;;14.00;8.45;;;;;;;5.56;71.05;91994.47;2047713;70;20238;-77
2023/11/24 06:52:17;;;;;;;19.00;9.43;;;;;;;5.41;71.65;92008.81;2047926;70;20250;-78
2023/11/24 06:54:43;;;;;;;19.80;9.60;;;;;;;5.42;71.53;91991.47;2044320;70;20165;-78
2023/11/24 06:57:08;;;;;;;17.42;9.90;;;;;;;5.65;71.23;91984.59;2048300;70;20482;-77
2023/11/24 06:59:34;;;;;;;18.00;8.93;;;;;;;5.28;72.19;91990.50;2048550;70;20241;-78
2023/11/24 07:01:59;;;;;;;23.52;12.05;;;;;;;5.20;72.80;91962.75;2044789;70;20139;-77
2023/11/24 07:04:25;;;;;;;22.83;13.77;;;;;;;5.16;73.35;91979.22;2048323;70;20157;-78
2023/11/24 07:06:50;;;;;;;24.95;13.15;;;;;;;5.53;72.09;91979.63;2048275;70;20651;-78
2023/11/24 07:09:16;;;;;;;24.42;13.45;;;;;;;5.63;71.10;91979.59;2048359;70;20143;-78
2023/11/24 07:11:41;;;;;;;25.30;13.23;;;;;;;5.78;70.87;91989.66;2044747;70;20147;-78
2023/11/24 07:14:07;;;;;;;20.75;11.18;;;;;;;5.56;71.70;91977.72;2048334;70;20170;-78
2023/11/24 07:16:33;;;;;;;22.67;11.50;;;;;;;5.73;71.86;91957.22;2048362;70;20209;-79
2023/11/24 07:18:59;;;;;;;16.65;10.30;;;;;;;5.52;71.54;91939.09;2048233;70;20146;-77
2023/11/24 07:21:25;;;;;;;19.63;11.38;;;;;;;5.78;71.59;91956.13;2048348;70;20150;-77
2023/11/24 07:23:51;;;;;;;24.77;12.02;;;;;;;5.92;71.09;91962.69;2048295;70;20142;-78
2023/11/24 07:26:17;;;;;;;22.70;11.63;;;;;;;6.08;70.55;91952.56;2048443;70;20227;-78
2023/11/24 07:28:44;;;;;;;31.50;11.63;;;;;;;6.07;70.55;91953.88;2048334;70;20151;-77
2023/11/24 07:31:14;;;;;;;16.35;8.85;;;;;;;5.95;71.66;91949.56;2048257;70;20341;-77
2023/11/24 07:33:42;;;;;;;23.38;10.57;;;;;;;5.66;73.26;91958.13;2048342;70;20249;-79
2023/11/24 07:36:11;;;;;;;21.65;10.90;;;;;;;5.90;72.23;91945.75;2048362;70;20138;-80
2023/11/24 07:38:37;;;;;;;24.50;12.00;;;;;;;6.12;71.86;91949.28;2048241;70;20139;-80
2023/11/24 07:41:04;;;;;;;24.13;11.30;;;;;;;6.25;71.32;91945.22;2044880;70;20147;-81
2023/11/24 07:43:31;;;;;;;21.73;11.65;;;;;;;6.22;71.21;91949.22;2048448;70;20154;-78
2023/11/24 07:46:00;;;;;;;23.95;11.32;;;;;;;6.35;71.08;91938.22;2044658;70;20217;-79
2023/11/24 07:48:26;;;;;;;22.73;11.82;;;;;;;6.17;71.39;91942.63;2048374;70;20330;-78
2023/11/24 07:50:52;;;;;;;22.63;11.60;;;;;;;6.33;71.49;91946.47;2048116;70;20227;-78
2023/11/24 07:53:17;;;;;;;23.92;12.50;;;;;;;6.52;70.90;91933.66;2048220;70;20185;-79
2023/11/24 07:55:44;;;;;;;22.63;12.25;;;;;;;6.69;70.38;91940.97;2048405;70;20147;-80
2023/11/24 07:58:10;;;;;;;19.92;9.90;;;;;;;6.01;72.93;91930.44;2048296;70;20682;-81
2023/11/24 08:00:37;;;;;;;24.38;10.57;;;;;;;6.28;72.29;91950.34;2048225;70;20486;-80
2023/11/24 08:03:03;;;;;;;19.20;10.20;;;;;;;6.65;70.80;91935.88;2047867;70;20217;-81
2023/11/24 08:05:29;;;;;;;17.10;8.70;;;;;;;6.82;70.13;91918.75;2047688;70;20158;-81
2023/11/24 08:07:55;;;;;;;15.60;7.50;;;;;;;6.77;70.93;91916.31;2048068;70;20143;-80
2023/11/24 08:10:20;;;;;;;15.75;8.90;;;;;;;6.29;72.25;91911.94;2047867;70;20221;-81
2023/11/24 08:12:46;;;;;;;17.25;9.48;;;;;;;6.48;71.73;91905.44;2047833;70;20185;-80
2023/11/24 08:15:12;;;;;;;22.15;10.88;;;;;;;6.62;71.31;91906.31;2047769;70;20618;-79
2023/11/24 08:17:39;;;;;;;19.55;10.77;;;;;;;6.73;71.38;91890.88;2047896;70;20558;-79
2023/11/24 08:20:10;;;;;;;17.77;11.10;;;;;;;6.83;70.90;91891.53;2047784;70;20162;-81
2023/11/24 08:22:39;;;;;;;22.38;9.75;;;;;;;6.17;73.24;91883.22;2047805;70;20591;-81
2023/11/24 08:25:06;;;;;;;15.50;9.75;;;;;;;6.64;71.99;91884.06;2047860;70;20238;-82
2023/11/24 08:27:32;;;;;;;14.60;8.75;;;;;;;6.67;71.79;91894.03;2047911;70;20583;-81
2023/11/24 08:29:59;;;;;;;13.25;8.50;;;;;;;6.56;72.57;91906.69;2047691;70;20233;-82
2023/11/24 08:32:25;;;;;;;17.55;8.48;;;;;;;6.69;72.03;91882.25;2047733;70;20686;-81
2023/11/24 08:34:50;;;;;;;15.80;8.18;;;;;;;6.69;72.56;91896.97;2047956;70;20173;-81
2023/11/24 08:37:16;;;;;;;15.35;8.23;;;;;;;6.67;73.16;91887.72;2048068;70;20547;-82
2023/11/24 08:39:41;;;;;;;18.00;9.40;;;;;;;7.12;72.58;91886.31;2047964;70;20142;-81
2023/11/24 08:42:07;;;;;;;20.27;10.05;;;;;;;7.21;71.03;91884.72;2048009;70;20143;-81
2023/11/24 08:44:33;;;;;;;23.27;9.75;;;;;;;7.32;71.03;91886.03;2047893;70;20154;-81
2023/11/24 08:46:58;;;;;;;17.65;9.40;;;;;;;7.94;71.90;91871.44;2047797;70;20153;-82
2023/11/24 08:49:24;;;;;;;14.13;7.45;;;;;;;7.92;71.55;91876.19;2047631;70;20143;-81
2023/11/24 08:51:49;;;;;;;14.07;7.50;;;;;;;8.42;69.22;91866.38;2047744;70;20158;-81
2023/11/24 08:54:15;;;;;;;17.90;10.05;;;;;;;8.57;69.54;91855.34;2047722;70;20130;-81
2023/11/24 08:56:41;;;;;;;17.05;9.13;;;;;;;9.01;68.87;91855.53;2047748;70;20610;-81
2023/11/24 08:59:10;;;;;;;15.38;9.30;;;;;;;9.08;67.77;91854.50;2047804;70;20150;-82
2023/11/24 09:01:36;;;;;;;21.05;11.30;;;;;;;9.42;69.31;91852.75;2047719;70;20178;-81
2023/11/24 09:04:02;;;;;;;18.17;10.75;;;;;;;9.78;67.96;91853.16;2047696;70;20347;-80
2023/11/24 09:06:31;;;;;;;18.15;10.55;;;;;;;9.74;66.66;91850.84;2047913;70;20166;-81
2023/11/24 09:09:00;;;;;;;23.15;10.75;;;;;;;10.15;66.67;91844.41;2047777;70;20230;-81
2023/11/24 09:11:26;;;;;;;19.98;11.93;;;;;;;9.90;66.16;91846.06;2047719;70;20153;-81
2023/11/24 09:13:52;;;;;;;14.30;9.45;;;;;;;10.01;66.56;91832.47;2044501;70;20159;-81
2023/11/24 09:16:18;;;;;;;15.45;9.48;;;;;;;10.53;66.90;91844.81;2047862;70;20169;-82
2023/11/24 09:18:44;;;;;;;21.77;10.38;;;;;;;10.81;66.76;91825.72;2047512;70;20146;-81
2023/11/24 09:21:10;;;;;;;14.25;8.57;;;;;;;12.32;66.69;91818.09;2047693;70;20535;-81
2023/11/24 09:23:37;;;;;;;10.50;4.53;;;;;;;11.98;58.91;91815.34;2047667;70;20174;-80
2023/11/24 09:26:03;;;;;;;14.13;8.10;;;;;;;10.95;63.32;91826.38;2044569;70;20150;-80
2023/11/24 09:28:29;;;;;;;10.55;6.75;;;;;;;11.43;62.84;91805.25;2047640;70;20170;-80
2023/11/24 09:30:57;;;;;;;11.73;6.22;;;;;;;12.32;62.45;91809.63;2047632;70;20205;-81
2023/11/24 09:33:22;;;;;;;6.80;3.53;;;;;;;12.02;58.58;91787.28;2047625;70;20143;-81
2023/11/24 09:35:49;;;;;;;4.32;2.45;;;;;;;12.63;55.82;91791.81;2047543;70;20646;-82
2023/11/24 09:38:15;;;;;;;5.13;2.50;;;;;;;13.01;54.81;91791.81;2047706;70;20139;-82
2023/11/24 09:40:40;;;;;;;5.55;3.50;;;;;;;13.14;56.69;91774.66;2047765;70;20147;-82
2023/11/24 09:43:08;;;;;;;5.65;3.28;;;;;;;13.42;55.69;91777.81;2047630;70;20194;-82
2023/11/24 09:45:34;;;;;;;6.47;2.97;;;;;;;13.55;56.10;91783.88;2047800;70;20598;-81
2023/11/24 09:48:01;;;;;;;3.53;2.33;;;;;;;13.06;54.19;91788.50;2047661;70;20726;-81
2023/11/24 09:50:27;;;;;;;2.50;1.75;;;;;;;13.55;52.49;91786.72;2047519;70;20234;-80
2023/11/24 09:52:55;;;;;;;1.95;1.13;;;;;;;13.69;49.58;91773.78;2047582;70;20210;-81
2023/11/24 09:55:25;;;;;;;2.95;1.80;;;;;;;14.44;50.22;91763.53;2047687;70;20218;-81
2023/11/24 09:57:51;;;;;;;0.75;0.57;;;;;;;15.11;47.08;91765.56;2047694;70;20142;-82
2023/11/24 10:00:19;;;;;;;0.60;0.38;;;;;;;16.32;42.42;91760.31;2047821;70;20243;-82
2023/11/24 10:02:51;;;;;;;2.50;1.42;;;;;;;15.20;46.51;91755.91;2047590;70;20166;-81
2023/11/24 10:05:21;;;;;;;2.63;1.60;;;;;;;15.04;47.55;91746.94;2047471;70;20162;-81
2023/11/24 10:07:50;;;;;;;2.88;1.65;;;;;;;15.58;46.88;91735.69;2047571;70;20150;-82
2023/11/24 10:10:24;;;;;;;13.25;1.50;;;;;;;16.26;45.86;91744.56;2044531;70;20143;-82
2023/11/24 10:12:52;;;;;;;4.50;1.20;;;;;;;15.86;46.63;91749.94;2047690;70;20206;-80
2023/11/24 10:15:20;;;;;;;2.58;1.48;;;;;;;16.16;44.34;91741.47;2047740;70;20174;-81
2023/11/24 10:17:48;;;;;;;5.72;1.83;;;;;;;17.26;43.16;91734.75;2047531;70;20595;-81
2023/11/24 10:20:18;;;;;;;1.10;0.80;;;;;;;17.44;41.95;91725.88;2047474;70;20146;-82
2023/11/24 10:22:50;;;;;;;0.20;0.20;;;;;;;18.47;38.35;91712.78;2044397;70;20210;-82
2023/11/24 10:25:23;;;;;;;1.03;0.93;;;;;;;18.20;37.49;91703.09;2047653;70;20174;-82
2023/11/24 10:27:56;;;;;;;3.65;1.42;;;;;;;18.34;40.94;91693.34;2047594;70;20214;-83
2023/11/24 10:30:22;;;;;;;2.67;0.75;;;;;;;19.14;37.14;91695.97;2048084;70;20238;-83
2023/11/24 10:32:48;;;;;;;0.60;0.50;;;;;;;19.52;33.31;91667.19;2048155;70;20585;-82
2023/11/24 10:35:13;;;;;;;0.20;0.20;;;;;;;18.06;34.38;91668.69;2048006;70;20158;-83
2023/11/24 10:37:40;;;;;;;0.52;0.20;;;;;;;18.78;34.19;91681.91;2048056;70;20143;-82
2023/11/24 10:40:11;;;;;;;0.40;0.25;;;;;;;18.93;32.67;91668.59;2048103;70;20539;-82
2023/11/24 10:42:40;;;;;;;0.47;0.30;;;;;;;18.69;34.85;91655.44;2048112;70;20294;-83
2023/11/24 10:45:11;;;;;;;0.40;0.20;;;;;;;18.44;35.20;91648.63;2048122;70;20213;-82
2023/11/24 10:47:55;;;;;;;0.20;0.10;;;;;;;17.72;34.25;91643.16;2048170;70;20146;-82
2023/11/24 10:50:26;;;;;;;1.02;0.30;;;;;;;16.69;35.36;91648.25;2047886;70;20246;-81
2023/11/24 10:53:02;;;;;;;0.68;0.22;;;;;;;16.82;35.64;91640.75;2048182;70;20135;-82
2023/11/24 10:55:30;;;;;;;0.13;0.10;;;;;;;18.44;35.67;91616.56;2047998;70;20598;-82
2023/11/24 10:57:57;;;;;;;1.23;0.47;;;;;;;17.76;34.65;91643.25;2047938;70;20523;-82
2023/11/24 11:00:23;;;;;;;0.10;0.10;;;;;;;19.37;33.08;91634.19;2047958;70;20155;-82
2023/11/24 11:02:50;;;;;;;0.20;0.20;;;;;;;19.54;33.46;91620.81;2047990;70;20162;-82
2023/11/24 11:05:55;;;;;;;0.10;0.10;;;;;;;20.97;30.39;91627.69;2047799;70;20250;-82
2023/11/24 11:08:35;;;;;;;0.57;0.30;;;;;;;19.48;31.40;91627.19;2047981;70;20698;-82
2023/11/24 11:11:11;;;;;;;0.47;0.40;;;;;;;17.11;32.52;91616.44;2047877;70;20205;-81
2023/11/24 11:13:39;;;;;;;0.80;0.57;;;;;;;18.18;32.45;91617.59;2047783;70;20137;-80
2023/11/24 11:16:08;;;;;;;0.15;0.10;;;;;;;18.09;32.92;91601.09;2048014;70;20214;-80
2023/11/24 11:18:35;;;;;;;0.40;0.40;;;;;;;16.77;34.39;91620.03;2049325;70;20197;-81
2023/11/24 11:21:37;;;;;;;0.57;0.40;;;;;;;17.09;34.16;91622.81;2051071;70;20257;-79
2023/11/24 11:24:08;;;;;;;0.50;0.30;;;;;;;16.93;34.76;91628.88;2051194;70;20209;-79
2023/11/24 11:26:45;;;;;;;0.10;0.10;;;;;;;15.75;35.85;91595.00;2051254;70;20161;-81
2023/11/24 11:29:14;;;;;;;0.20;0.10;;;;;;;16.37;35.68;91614.19;2047947;70;20209;-81
2023/11/24 11:31:44;;;;;;;0.17;0.17;;;;;;;15.80;36.65;91602.22;2051095;70;20201;-81
2023/11/24 11:34:16;;;;;;;0.28;0.28;;;;;;;15.08;36.31;91591.19;2051090;70;20143;-79
2023/11/24 11:37:12;;;;;;;0.20;0.20;;;;;;;15.52;36.66;91580.25;2051318;70;20155;-80